sensor_id;sensor_type;location;lat;lon;timestamp;P1;durP1;ratioP1;P2;durP2;ratioP2
7843;SDS011;3967;48.702;9.326;2022-10-26T00:00:12;5.90;;;2.30;;
7843;SDS011;3967;48.702;9.326;2022-10-26T00:02:39;6.23;;;2.30;;
7843;SDS011;3967;48.702;9.326;2022-10-26T00:05:05;4.20;;;2.40;;
7843;SDS011;3967;48.702;9.326;2022-10-26T00:07:32;2.77;;;2.10;;
7843;SDS011;3967;48.702;9.326;2022-10-26T00:09:59;5.07;;;2.20;;
7843;SDS011;3967;48.702;9.326;2022-10-26T00:12:26;3.50;;;2.50;;
7843;SDS011;3967;48.702;9.326;2022-10-26T00:14:52;5.53;;;2.40;;
7843;SDS011;3967;48.702;9.326;2022-10-26T00:17:19;2.23;;;2.00;;
7843;SDS011;3967;48.702;9.326;2022-10-26T00:19:46;2.93;;;2.50;;
7843;SDS011;3967;48.702;9.326;2022-10-26T00:22:12;6.37;;;2.50;;
7843;SDS011;3967;48.702;9.326;2022-10-26T00:24:39;3.33;;;2.20;;
7843;SDS011;3967;48.702;9.326;2022-10-26T00:27:05;3.07;;;2.40;;
7843;SDS011;3967;48.702;9.326;2022-10-26T00:29:32;5.47;;;2.23;;
7843;SDS011;3967;48.702;9.326;2022-10-26T00:31:59;3.67;;;2.40;;
7843;SDS011;3967;48.702;9.326;2022-10-26T00:34:25;4.77;;;2.50;;
7843;SDS011;3967;48.702;9.326;2022-10-26T00:36:52;6.50;;;2.80;;
7843;SDS011;3967;48.702;9.326;2022-10-26T00:39:18;5.73;;;2.87;;
7843;SDS011;3967;48.702;9.326;2022-10-26T00:41:45;5.70;;;2.10;;
7843;SDS011;3967;48.702;9.326;2022-10-26T00:47:14;5.23;;;2.40;;
7843;SDS011;3967;48.702;9.326;2022-10-26T00:49:55;4.60;;;2.97;;
7843;SDS011;3967;48.702;9.326;2022-10-26T00:52:25;8.17;;;2.57;;
7843;SDS011;3967;48.702;9.326;2022-10-26T00:54:53;10.00;;;2.63;;
7843;SDS011;3967;48.702;9.326;2022-10-26T00:57:20;5.83;;;2.60;;
7843;SDS011;3967;48.702;9.326;2022-10-26T00:59:47;8.17;;;3.10;;
7843;SDS011;3967;48.702;9.326;2022-10-26T01:02:17;4.07;;;2.60;;
7843;SDS011;3967;48.702;9.326;2022-10-26T01:04:44;5.60;;;2.23;;
7843;SDS011;3967;48.702;9.326;2022-10-26T01:07:11;8.63;;;2.90;;
7843;SDS011;3967;48.702;9.326;2022-10-26T01:09:39;6.23;;;2.57;;
7843;SDS011;3967;48.702;9.326;2022-10-26T01:12:06;4.57;;;2.63;;
7843;SDS011;3967;48.702;9.326;2022-10-26T01:14:33;4.50;;;2.30;;
7843;SDS011;3967;48.702;9.326;2022-10-26T01:18:04;3.47;;;2.03;;
7843;SDS011;3967;48.702;9.326;2022-10-26T01:28:24;6.27;;;2.70;;
7843;SDS011;3967;48.702;9.326;2022-10-26T01:31:00;4.80;;;2.67;;
7843;SDS011;3967;48.702;9.326;2022-10-26T01:33:34;3.70;;;2.90;;
7843;SDS011;3967;48.702;9.326;2022-10-26T01:36:10;3.50;;;2.60;;
7843;SDS011;3967;48.702;9.326;2022-10-26T01:38:55;7.60;;;2.97;;
7843;SDS011;3967;48.702;9.326;2022-10-26T01:44:26;5.43;;;3.00;;
7843;SDS011;3967;48.702;9.326;2022-10-26T01:47:11;6.03;;;3.37;;
7843;SDS011;3967;48.702;9.326;2022-10-26T01:49:44;5.50;;;3.40;;
7843;SDS011;3967;48.702;9.326;2022-10-26T01:52:14;6.67;;;2.77;;
7843;SDS011;3967;48.702;9.326;2022-10-26T01:54:43;3.47;;;2.47;;
7843;SDS011;3967;48.702;9.326;2022-10-26T01:57:10;3.73;;;2.20;;
7843;SDS011;3967;48.702;9.326;2022-10-26T02:05:19;3.10;;;2.20;;
7843;SDS011;3967;48.702;9.326;2022-10-26T02:10:53;4.83;;;2.60;;
7843;SDS011;3967;48.702;9.326;2022-10-26T02:13:54;4.83;;;2.50;;
7843;SDS011;3967;48.702;9.326;2022-10-26T02:16:55;8.27;;;3.10;;
7843;SDS011;3967;48.702;9.326;2022-10-26T02:22:12;6.70;;;2.83;;
7843;SDS011;3967;48.702;9.326;2022-10-26T02:24:42;5.57;;;2.63;;
7843;SDS011;3967;48.702;9.326;2022-10-26T02:27:13;5.27;;;2.67;;
7843;SDS011;3967;48.702;9.326;2022-10-26T02:29:45;5.90;;;2.60;;
7843;SDS011;3967;48.702;9.326;2022-10-26T02:32:15;3.53;;;2.30;;
7843;SDS011;3967;48.702;9.326;2022-10-26T02:34:44;3.77;;;2.47;;
7843;SDS011;3967;48.702;9.326;2022-10-26T02:37:14;5.17;;;2.83;;
7843;SDS011;3967;48.702;9.326;2022-10-26T02:39:44;4.63;;;2.70;;
7843;SDS011;3967;48.702;9.326;2022-10-26T02:42:14;7.20;;;3.00;;
7843;SDS011;3967;48.702;9.326;2022-10-26T02:44:42;4.33;;;2.60;;
7843;SDS011;3967;48.702;9.326;2022-10-26T02:47:13;4.20;;;2.87;;
7843;SDS011;3967;48.702;9.326;2022-10-26T02:49:40;3.87;;;2.67;;
7843;SDS011;3967;48.702;9.326;2022-10-26T02:52:11;5.13;;;2.83;;
7843;SDS011;3967;48.702;9.326;2022-10-26T03:00:09;5.73;;;2.40;;
7843;SDS011;3967;48.702;9.326;2022-10-26T03:02:37;5.80;;;2.77;;
7843;SDS011;3967;48.702;9.326;2022-10-26T03:05:12;8.03;;;3.27;;
7843;SDS011;3967;48.702;9.326;2022-10-26T03:07:40;5.23;;;2.57;;
7843;SDS011;3967;48.702;9.326;2022-10-26T03:10:06;2.57;;;2.30;;
7843;SDS011;3967;48.702;9.326;2022-10-26T03:12:33;3.30;;;2.47;;
7843;SDS011;3967;48.702;9.326;2022-10-26T03:15:00;4.27;;;2.83;;
7843;SDS011;3967;48.702;9.326;2022-10-26T03:17:27;3.57;;;2.67;;
7843;SDS011;3967;48.702;9.326;2022-10-26T03:19:54;5.13;;;3.13;;
7843;SDS011;3967;48.702;9.326;2022-10-26T03:22:21;2.83;;;2.50;;
7843;SDS011;3967;48.702;9.326;2022-10-26T03:24:48;4.03;;;2.67;;
7843;SDS011;3967;48.702;9.326;2022-10-26T03:27:14;3.60;;;2.63;;
7843;SDS011;3967;48.702;9.326;2022-10-26T03:29:41;5.30;;;2.53;;
7843;SDS011;3967;48.702;9.326;2022-10-26T03:32:07;2.90;;;2.70;;
7843;SDS011;3967;48.702;9.326;2022-10-26T03:34:34;3.63;;;2.70;;
7843;SDS011;3967;48.702;9.326;2022-10-26T03:37:01;6.87;;;2.57;;
7843;SDS011;3967;48.702;9.326;2022-10-26T03:39:27;3.03;;;2.30;;
7843;SDS011;3967;48.702;9.326;2022-10-26T03:41:54;2.50;;;2.30;;
7843;SDS011;3967;48.702;9.326;2022-10-26T03:44:21;3.07;;;2.43;;
7843;SDS011;3967;48.702;9.326;2022-10-26T03:46:48;5.83;;;2.50;;
7843;SDS011;3967;48.702;9.326;2022-10-26T03:49:14;4.87;;;2.60;;
7843;SDS011;3967;48.702;9.326;2022-10-26T03:51:41;4.40;;;2.40;;
7843;SDS011;3967;48.702;9.326;2022-10-26T03:54:08;8.73;;;2.90;;
7843;SDS011;3967;48.702;9.326;2022-10-26T03:56:35;4.87;;;2.20;;
7843;SDS011;3967;48.702;9.326;2022-10-26T03:59:01;5.77;;;2.43;;
7843;SDS011;3967;48.702;9.326;2022-10-26T04:01:28;8.97;;;3.27;;
7843;SDS011;3967;48.702;9.326;2022-10-26T04:03:55;4.07;;;2.60;;
7843;SDS011;3967;48.702;9.326;2022-10-26T04:06:22;4.00;;;2.37;;
7843;SDS011;3967;48.702;9.326;2022-10-26T04:08:48;3.83;;;2.73;;
7843;SDS011;3967;48.702;9.326;2022-10-26T04:11:16;3.43;;;2.43;;
7843;SDS011;3967;48.702;9.326;2022-10-26T04:13:43;6.80;;;2.50;;
7843;SDS011;3967;48.702;9.326;2022-10-26T04:16:09;3.97;;;2.77;;
7843;SDS011;3967;48.702;9.326;2022-10-26T04:18:36;6.00;;;2.63;;
7843;SDS011;3967;48.702;9.326;2022-10-26T04:21:03;6.10;;;2.73;;
7843;SDS011;3967;48.702;9.326;2022-10-26T04:23:29;6.00;;;2.80;;
7843;SDS011;3967;48.702;9.326;2022-10-26T04:25:56;3.43;;;2.23;;
7843;SDS011;3967;48.702;9.326;2022-10-26T04:28:23;3.90;;;2.90;;
7843;SDS011;3967;48.702;9.326;2022-10-26T04:30:49;3.93;;;2.83;;
7843;SDS011;3967;48.702;9.326;2022-10-26T04:33:16;6.33;;;2.50;;
7843;SDS011;3967;48.702;9.326;2022-10-26T04:35:43;7.27;;;3.00;;
7843;SDS011;3967;48.702;9.326;2022-10-26T04:38:10;5.30;;;2.83;;
7843;SDS011;3967;48.702;9.326;2022-10-26T04:40:37;5.83;;;2.80;;
7843;SDS011;3967;48.702;9.326;2022-10-26T04:43:04;4.07;;;2.40;;
7843;SDS011;3967;48.702;9.326;2022-10-26T04:45:30;5.00;;;3.33;;
7843;SDS011;3967;48.702;9.326;2022-10-26T04:48:01;5.47;;;3.00;;
7843;SDS011;3967;48.702;9.326;2022-10-26T04:50:30;5.27;;;2.90;;
7843;SDS011;3967;48.702;9.326;2022-10-26T04:52:57;3.57;;;3.17;;
7843;SDS011;3967;48.702;9.326;2022-10-26T04:55:24;6.10;;;3.30;;
7843;SDS011;3967;48.702;9.326;2022-10-26T04:57:51;7.50;;;3.77;;
7843;SDS011;3967;48.702;9.326;2022-10-26T05:00:23;5.53;;;3.10;;
7843;SDS011;3967;48.702;9.326;2022-10-26T05:02:50;3.83;;;3.33;;
7843;SDS011;3967;48.702;9.326;2022-10-26T05:05:17;6.63;;;3.20;;
7843;SDS011;3967;48.702;9.326;2022-10-26T05:07:44;6.53;;;2.73;;
7843;SDS011;3967;48.702;9.326;2022-10-26T05:10:19;5.73;;;3.17;;
7843;SDS011;3967;48.702;9.326;2022-10-26T05:12:49;2.90;;;2.70;;
7843;SDS011;3967;48.702;9.326;2022-10-26T05:15:20;5.07;;;3.53;;
7843;SDS011;3967;48.702;9.326;2022-10-26T05:17:54;3.90;;;3.60;;
7843;SDS011;3967;48.702;9.326;2022-10-26T05:20:22;4.60;;;4.10;;
7843;SDS011;3967;48.702;9.326;2022-10-26T05:22:56;6.33;;;3.50;;
7843;SDS011;3967;48.702;9.326;2022-10-26T05:25:24;4.97;;;3.90;;
7843;SDS011;3967;48.702;9.326;2022-10-26T05:27:51;4.07;;;3.00;;
7843;SDS011;3967;48.702;9.326;2022-10-26T05:30:22;4.50;;;2.90;;
7843;SDS011;3967;48.702;9.326;2022-10-26T05:32:55;3.20;;;2.93;;
7843;SDS011;3967;48.702;9.326;2022-10-26T05:35:22;4.03;;;3.33;;
7843;SDS011;3967;48.702;9.326;2022-10-26T05:37:51;3.53;;;2.90;;
7843;SDS011;3967;48.702;9.326;2022-10-26T05:40:18;5.17;;;2.77;;
7843;SDS011;3967;48.702;9.326;2022-10-26T05:42:45;8.80;;;3.20;;
7843;SDS011;3967;48.702;9.326;2022-10-26T05:45:13;5.00;;;2.90;;
7843;SDS011;3967;48.702;9.326;2022-10-26T05:47:40;3.70;;;2.90;;
7843;SDS011;3967;48.702;9.326;2022-10-26T05:50:07;6.60;;;3.30;;
7843;SDS011;3967;48.702;9.326;2022-10-26T05:52:41;4.93;;;3.43;;
7843;SDS011;3967;48.702;9.326;2022-10-26T05:55:10;5.40;;;4.00;;
7843;SDS011;3967;48.702;9.326;2022-10-26T05:57:38;5.90;;;4.50;;
7843;SDS011;3967;48.702;9.326;2022-10-26T06:00:15;8.07;;;4.33;;
7843;SDS011;3967;48.702;9.326;2022-10-26T06:05:30;7.50;;;4.47;;
7843;SDS011;3967;48.702;9.326;2022-10-26T06:08:00;6.40;;;4.10;;
7843;SDS011;3967;48.702;9.326;2022-10-26T06:10:27;7.50;;;5.20;;
7843;SDS011;3967;48.702;9.326;2022-10-26T06:12:54;8.17;;;4.03;;
7843;SDS011;3967;48.702;9.326;2022-10-26T06:15:21;7.37;;;3.70;;
7843;SDS011;3967;48.702;9.326;2022-10-26T06:17:58;5.67;;;4.43;;
7843;SDS011;3967;48.702;9.326;2022-10-26T06:26:24;5.23;;;3.70;;
7843;SDS011;3967;48.702;9.326;2022-10-26T06:29:06;4.30;;;3.27;;
7843;SDS011;3967;48.702;9.326;2022-10-26T06:31:59;5.07;;;3.40;;
7843;SDS011;3967;48.702;9.326;2022-10-26T06:34:27;5.83;;;3.40;;
7843;SDS011;3967;48.702;9.326;2022-10-26T06:36:59;6.67;;;3.73;;
7843;SDS011;3967;48.702;9.326;2022-10-26T06:39:27;6.63;;;3.37;;
7843;SDS011;3967;48.702;9.326;2022-10-26T06:41:56;4.53;;;3.33;;
7843;SDS011;3967;48.702;9.326;2022-10-26T06:44:23;7.40;;;3.93;;
7843;SDS011;3967;48.702;9.326;2022-10-26T06:46:59;8.77;;;4.17;;
7843;SDS011;3967;48.702;9.326;2022-10-26T06:50:23;6.77;;;3.93;;
7843;SDS011;3967;48.702;9.326;2022-10-26T06:52:38;6.27;;;3.87;;
7843;SDS011;3967;48.702;9.326;2022-10-26T06:55:14;5.77;;;3.40;;
7843;SDS011;3967;48.702;9.326;2022-10-26T06:57:42;5.97;;;4.13;;
7843;SDS011;3967;48.702;9.326;2022-10-26T07:00:16;7.70;;;4.23;;
7843;SDS011;3967;48.702;9.326;2022-10-26T07:02:46;7.30;;;5.20;;
7843;SDS011;3967;48.702;9.326;2022-10-26T07:05:16;6.43;;;3.93;;
7843;SDS011;3967;48.702;9.326;2022-10-26T07:07:43;5.00;;;4.07;;
7843;SDS011;3967;48.702;9.326;2022-10-26T07:10:12;6.00;;;3.63;;
7843;SDS011;3967;48.702;9.326;2022-10-26T07:12:40;7.80;;;4.47;;
7843;SDS011;3967;48.702;9.326;2022-10-26T07:15:07;4.63;;;3.70;;
7843;SDS011;3967;48.702;9.326;2022-10-26T07:17:46;5.57;;;3.53;;
7843;SDS011;3967;48.702;9.326;2022-10-26T07:20:16;4.73;;;3.30;;
7843;SDS011;3967;48.702;9.326;2022-10-26T07:22:43;6.03;;;3.50;;
7843;SDS011;3967;48.702;9.326;2022-10-26T07:25:10;3.53;;;3.23;;
7843;SDS011;3967;48.702;9.326;2022-10-26T07:27:37;6.27;;;3.60;;
7843;SDS011;3967;48.702;9.326;2022-10-26T07:30:04;3.40;;;3.10;;
7843;SDS011;3967;48.702;9.326;2022-10-26T07:32:31;6.70;;;4.30;;
7843;SDS011;3967;48.702;9.326;2022-10-26T07:34:58;7.20;;;4.07;;
7843;SDS011;3967;48.702;9.326;2022-10-26T07:37:25;4.67;;;3.10;;
7843;SDS011;3967;48.702;9.326;2022-10-26T07:39:51;4.90;;;3.30;;
7843;SDS011;3967;48.702;9.326;2022-10-26T07:42:18;5.47;;;3.90;;
7843;SDS011;3967;48.702;9.326;2022-10-26T07:44:45;4.20;;;3.63;;
7843;SDS011;3967;48.702;9.326;2022-10-26T07:47:11;6.57;;;3.97;;
7843;SDS011;3967;48.702;9.326;2022-10-26T07:49:38;5.13;;;4.27;;
7843;SDS011;3967;48.702;9.326;2022-10-26T07:52:05;6.30;;;4.87;;
7843;SDS011;3967;48.702;9.326;2022-10-26T07:54:32;5.67;;;4.10;;
7843;SDS011;3967;48.702;9.326;2022-10-26T07:56:59;10.50;;;5.87;;
7843;SDS011;3967;48.702;9.326;2022-10-26T07:59:26;7.60;;;4.97;;
7843;SDS011;3967;48.702;9.326;2022-10-26T08:01:52;8.13;;;5.17;;
7843;SDS011;3967;48.702;9.326;2022-10-26T08:04:19;6.67;;;4.77;;
7843;SDS011;3967;48.702;9.326;2022-10-26T08:06:46;13.30;;;5.00;;
7843;SDS011;3967;48.702;9.326;2022-10-26T08:09:13;8.40;;;5.33;;
7843;SDS011;3967;48.702;9.326;2022-10-26T08:11:40;10.33;;;5.70;;
7843;SDS011;3967;48.702;9.326;2022-10-26T08:14:07;7.87;;;5.43;;
7843;SDS011;3967;48.702;9.326;2022-10-26T08:16:36;10.40;;;5.90;;
7843;SDS011;3967;48.702;9.326;2022-10-26T08:19:05;10.77;;;5.60;;
7843;SDS011;3967;48.702;9.326;2022-10-26T08:21:32;11.50;;;6.07;;
7843;SDS011;3967;48.702;9.326;2022-10-26T08:24:05;5.40;;;4.10;;
7843;SDS011;3967;48.702;9.326;2022-10-26T08:26:32;8.23;;;5.50;;
7843;SDS011;3967;48.702;9.326;2022-10-26T08:28:59;7.33;;;5.83;;
7843;SDS011;3967;48.702;9.326;2022-10-26T08:31:26;12.20;;;5.67;;
7843;SDS011;3967;48.702;9.326;2022-10-26T08:33:53;7.67;;;5.43;;
7843;SDS011;3967;48.702;9.326;2022-10-26T08:36:22;7.80;;;5.27;;
7843;SDS011;3967;48.702;9.326;2022-10-26T08:38:50;6.37;;;5.13;;
7843;SDS011;3967;48.702;9.326;2022-10-26T08:41:19;7.97;;;5.70;;
7843;SDS011;3967;48.702;9.326;2022-10-26T08:43:57;6.90;;;5.20;;
7843;SDS011;3967;48.702;9.326;2022-10-26T08:46:32;11.13;;;5.53;;
7843;SDS011;3967;48.702;9.326;2022-10-26T08:49:04;11.90;;;5.53;;
7843;SDS011;3967;48.702;9.326;2022-10-26T08:51:42;8.80;;;5.07;;
7843;SDS011;3967;48.702;9.326;2022-10-26T08:54:10;8.47;;;5.10;;
7843;SDS011;3967;48.702;9.326;2022-10-26T08:56:53;9.23;;;5.90;;
7843;SDS011;3967;48.702;9.326;2022-10-26T08:59:27;8.47;;;4.67;;
7843;SDS011;3967;48.702;9.326;2022-10-26T09:02:14;8.97;;;5.57;;
7843;SDS011;3967;48.702;9.326;2022-10-26T09:04:42;9.23;;;4.90;;
7843;SDS011;3967;48.702;9.326;2022-10-26T09:10:15;7.40;;;5.47;;
7843;SDS011;3967;48.702;9.326;2022-10-26T09:24:05;7.27;;;4.37;;
7843;SDS011;3967;48.702;9.326;2022-10-26T09:26:44;6.87;;;4.57;;
7843;SDS011;3967;48.702;9.326;2022-10-26T09:29:26;5.27;;;4.47;;
7843;SDS011;3967;48.702;9.326;2022-10-26T09:31:58;6.23;;;4.20;;
7843;SDS011;3967;48.702;9.326;2022-10-26T09:34:28;6.73;;;4.33;;
7843;SDS011;3967;48.702;9.326;2022-10-26T09:37:14;7.40;;;4.57;;
7843;SDS011;3967;48.702;9.326;2022-10-26T09:42:45;4.70;;;3.50;;
7843;SDS011;3967;48.702;9.326;2022-10-26T09:45:16;3.07;;;2.33;;
7843;SDS011;3967;48.702;9.326;2022-10-26T09:47:50;7.37;;;2.87;;
7843;SDS011;3967;48.702;9.326;2022-10-26T09:52:52;7.63;;;2.27;;
7843;SDS011;3967;48.702;9.326;2022-10-26T09:55:19;4.10;;;2.67;;
7843;SDS011;3967;48.702;9.326;2022-10-26T09:57:52;4.13;;;2.23;;
7843;SDS011;3967;48.702;9.326;2022-10-26T10:00:22;6.77;;;2.27;;
7843;SDS011;3967;48.702;9.326;2022-10-26T10:02:51;2.33;;;2.13;;
7843;SDS011;3967;48.702;9.326;2022-10-26T10:05:34;3.07;;;1.73;;
7843;SDS011;3967;48.702;9.326;2022-10-26T10:08:23;4.60;;;2.00;;
7843;SDS011;3967;48.702;9.326;2022-10-26T10:13:42;4.90;;;1.80;;
7843;SDS011;3967;48.702;9.326;2022-10-26T10:18:39;4.80;;;1.90;;
7843;SDS011;3967;48.702;9.326;2022-10-26T10:21:07;6.90;;;1.83;;
7843;SDS011;3967;48.702;9.326;2022-10-26T10:23:36;3.37;;;1.80;;
7843;SDS011;3967;48.702;9.326;2022-10-26T10:26:17;6.30;;;1.93;;
7843;SDS011;3967;48.702;9.326;2022-10-26T10:28:54;3.93;;;1.60;;
7843;SDS011;3967;48.702;9.326;2022-10-26T10:31:31;5.73;;;2.10;;
7843;SDS011;3967;48.702;9.326;2022-10-26T10:33:58;2.60;;;1.47;;
7843;SDS011;3967;48.702;9.326;2022-10-26T10:36:26;2.83;;;1.40;;
7843;SDS011;3967;48.702;9.326;2022-10-26T10:38:55;3.27;;;1.50;;
7843;SDS011;3967;48.702;9.326;2022-10-26T10:41:30;6.70;;;1.60;;
7843;SDS011;3967;48.702;9.326;2022-10-26T10:44:05;4.57;;;1.47;;
7843;SDS011;3967;48.702;9.326;2022-10-26T10:46:58;4.03;;;2.03;;
7843;SDS011;3967;48.702;9.326;2022-10-26T10:49:27;3.63;;;1.93;;
7843;SDS011;3967;48.702;9.326;2022-10-26T10:51:55;4.50;;;1.37;;
7843;SDS011;3967;48.702;9.326;2022-10-26T10:54:24;3.20;;;1.80;;
7843;SDS011;3967;48.702;9.326;2022-10-26T10:57:10;4.73;;;1.70;;
7843;SDS011;3967;48.702;9.326;2022-10-26T11:00:05;5.43;;;1.40;;
7843;SDS011;3967;48.702;9.326;2022-10-26T11:02:42;4.13;;;1.80;;
7843;SDS011;3967;48.702;9.326;2022-10-26T11:05:55;4.83;;;1.53;;
7843;SDS011;3967;48.702;9.326;2022-10-26T11:08:54;4.60;;;1.40;;
7843;SDS011;3967;48.702;9.326;2022-10-26T11:11:30;3.00;;;1.60;;
7843;SDS011;3967;48.702;9.326;2022-10-26T11:21:53;2.77;;;1.83;;
7843;SDS011;3967;48.702;9.326;2022-10-26T11:24:22;4.43;;;1.70;;
7843;SDS011;3967;48.702;9.326;2022-10-26T11:32:01;5.80;;;1.40;;
7843;SDS011;3967;48.702;9.326;2022-10-26T11:37:18;2.37;;;1.40;;
7843;SDS011;3967;48.702;9.326;2022-10-26T11:42:56;4.37;;;1.30;;
7843;SDS011;3967;48.702;9.326;2022-10-26T11:45:29;6.33;;;1.47;;
7843;SDS011;3967;48.702;9.326;2022-10-26T11:48:03;6.60;;;1.47;;
7843;SDS011;3967;48.702;9.326;2022-10-26T11:50:40;6.40;;;1.83;;
7843;SDS011;3967;48.702;9.326;2022-10-26T11:53:15;2.63;;;1.20;;
7843;SDS011;3967;48.702;9.326;2022-10-26T11:55:53;2.93;;;1.37;;
7843;SDS011;3967;48.702;9.326;2022-10-26T11:58:25;5.13;;;1.80;;
7843;SDS011;3967;48.702;9.326;2022-10-26T12:01:00;3.93;;;1.33;;
7843;SDS011;3967;48.702;9.326;2022-10-26T12:03:36;6.10;;;1.40;;
7843;SDS011;3967;48.702;9.326;2022-10-26T12:06:11;4.73;;;1.53;;
7843;SDS011;3967;48.702;9.326;2022-10-26T12:08:57;7.63;;;1.13;;
7843;SDS011;3967;48.702;9.326;2022-10-26T12:11:34;1.63;;;1.10;;
7843;SDS011;3967;48.702;9.326;2022-10-26T12:22:36;2.33;;;1.10;;
7843;SDS011;3967;48.702;9.326;2022-10-26T12:32:50;3.03;;;1.20;;
7843;SDS011;3967;48.702;9.326;2022-10-26T12:35:32;3.83;;;2.00;;
7843;SDS011;3967;48.702;9.326;2022-10-26T12:48:45;6.10;;;1.60;;
7843;SDS011;3967;48.702;9.326;2022-10-26T12:52:02;2.87;;;1.37;;
7843;SDS011;3967;48.702;9.326;2022-10-26T12:56:50;5.60;;;1.47;;
7843;SDS011;3967;48.702;9.326;2022-10-26T13:02:28;7.97;;;1.40;;
7843;SDS011;3967;48.702;9.326;2022-10-26T13:05:25;4.67;;;1.77;;
7843;SDS011;3967;48.702;9.326;2022-10-26T13:08:02;4.33;;;1.40;;
7843;SDS011;3967;48.702;9.326;2022-10-26T13:10:32;5.17;;;1.37;;
7843;SDS011;3967;48.702;9.326;2022-10-26T13:13:01;3.40;;;1.83;;
7843;SDS011;3967;48.702;9.326;2022-10-26T13:15:34;5.33;;;1.90;;
7843;SDS011;3967;48.702;9.326;2022-10-26T13:18:17;5.27;;;1.70;;
7843;SDS011;3967;48.702;9.326;2022-10-26T13:20:59;5.83;;;1.80;;
7843;SDS011;3967;48.702;9.326;2022-10-26T13:23:40;5.13;;;1.60;;
7843;SDS011;3967;48.702;9.326;2022-10-26T13:26:12;3.23;;;1.37;;
7843;SDS011;3967;48.702;9.326;2022-10-26T13:28:45;6.80;;;2.00;;
7843;SDS011;3967;48.702;9.326;2022-10-26T13:33:55;5.07;;;2.00;;
7843;SDS011;3967;48.702;9.326;2022-10-26T13:41:50;4.40;;;1.40;;
7843;SDS011;3967;48.702;9.326;2022-10-26T13:47:09;4.53;;;1.27;;
7843;SDS011;3967;48.702;9.326;2022-10-26T13:49:40;9.07;;;1.30;;
7843;SDS011;3967;48.702;9.326;2022-10-26T13:52:14;6.73;;;1.87;;
7843;SDS011;3967;48.702;9.326;2022-10-26T13:54:44;4.47;;;1.20;;
7843;SDS011;3967;48.702;9.326;2022-10-26T14:00:00;1.97;;;1.30;;
7843;SDS011;3967;48.702;9.326;2022-10-26T14:02:40;1.93;;;1.20;;
7843;SDS011;3967;48.702;9.326;2022-10-26T14:05:09;4.73;;;1.50;;
7843;SDS011;3967;48.702;9.326;2022-10-26T14:12:54;4.37;;;1.20;;
7843;SDS011;3967;48.702;9.326;2022-10-26T14:15:25;4.93;;;1.80;;
7843;SDS011;3967;48.702;9.326;2022-10-26T14:17:56;3.00;;;1.20;;
7843;SDS011;3967;48.702;9.326;2022-10-26T14:20:24;5.57;;;1.53;;
7843;SDS011;3967;48.702;9.326;2022-10-26T14:22:53;3.93;;;1.30;;
7843;SDS011;3967;48.702;9.326;2022-10-26T14:25:21;3.13;;;1.50;;
7843;SDS011;3967;48.702;9.326;2022-10-26T14:28:19;4.13;;;1.20;;
7843;SDS011;3967;48.702;9.326;2022-10-26T14:31:09;7.63;;;2.00;;
7843;SDS011;3967;48.702;9.326;2022-10-26T14:33:46;4.97;;;1.40;;
7843;SDS011;3967;48.702;9.326;2022-10-26T14:36:14;11.17;;;1.83;;
7843;SDS011;3967;48.702;9.326;2022-10-26T14:38:43;5.40;;;1.40;;
7843;SDS011;3967;48.702;9.326;2022-10-26T14:41:13;3.43;;;1.30;;
7843;SDS011;3967;48.702;9.326;2022-10-26T14:43:42;5.63;;;1.40;;
7843;SDS011;3967;48.702;9.326;2022-10-26T14:46:13;4.77;;;0.87;;
7843;SDS011;3967;48.702;9.326;2022-10-26T14:48:49;4.73;;;1.37;;
7843;SDS011;3967;48.702;9.326;2022-10-26T14:51:25;8.43;;;1.00;;
7843;SDS011;3967;48.702;9.326;2022-10-26T14:53:56;5.63;;;1.63;;
7843;SDS011;3967;48.702;9.326;2022-10-26T14:56:30;2.40;;;1.57;;
7843;SDS011;3967;48.702;9.326;2022-10-26T14:59:08;2.30;;;1.10;;
7843;SDS011;3967;48.702;9.326;2022-10-26T15:01:46;3.07;;;1.20;;
7843;SDS011;3967;48.702;9.326;2022-10-26T15:04:27;6.87;;;1.67;;
7843;SDS011;3967;48.702;9.326;2022-10-26T15:07:05;7.43;;;1.37;;
7843;SDS011;3967;48.702;9.326;2022-10-26T15:09:46;4.80;;;1.20;;
7843;SDS011;3967;48.702;9.326;2022-10-26T15:12:17;7.80;;;1.40;;
7843;SDS011;3967;48.702;9.326;2022-10-26T15:14:53;3.60;;;1.30;;
7843;SDS011;3967;48.702;9.326;2022-10-26T15:17:22;4.77;;;1.70;;
7843;SDS011;3967;48.702;9.326;2022-10-26T15:19:52;3.37;;;0.97;;
7843;SDS011;3967;48.702;9.326;2022-10-26T15:22:21;5.17;;;1.90;;
7843;SDS011;3967;48.702;9.326;2022-10-26T15:24:57;4.93;;;1.50;;
7843;SDS011;3967;48.702;9.326;2022-10-26T15:27:26;3.80;;;1.40;;
7843;SDS011;3967;48.702;9.326;2022-10-26T15:32:44;8.50;;;1.70;;
7843;SDS011;3967;48.702;9.326;2022-10-26T15:37:44;2.30;;;1.20;;
7843;SDS011;3967;48.702;9.326;2022-10-26T15:40:11;3.20;;;1.30;;
7843;SDS011;3967;48.702;9.326;2022-10-26T15:42:39;1.53;;;0.90;;
7843;SDS011;3967;48.702;9.326;2022-10-26T15:45:20;4.37;;;1.27;;
7843;SDS011;3967;48.702;9.326;2022-10-26T15:47:48;3.87;;;1.30;;
7843;SDS011;3967;48.702;9.326;2022-10-26T15:50:21;4.37;;;1.30;;
7843;SDS011;3967;48.702;9.326;2022-10-26T15:52:53;2.57;;;1.03;;
7843;SDS011;3967;48.702;9.326;2022-10-26T15:55:34;3.30;;;1.17;;
7843;SDS011;3967;48.702;9.326;2022-10-26T15:58:01;5.00;;;1.27;;
7843;SDS011;3967;48.702;9.326;2022-10-26T16:00:27;4.70;;;1.37;;
7843;SDS011;3967;48.702;9.326;2022-10-26T16:02:54;4.00;;;1.37;;
7843;SDS011;3967;48.702;9.326;2022-10-26T16:05:21;4.27;;;1.40;;
7843;SDS011;3967;48.702;9.326;2022-10-26T16:07:48;4.80;;;1.27;;
7843;SDS011;3967;48.702;9.326;2022-10-26T16:10:22;3.00;;;1.63;;
7843;SDS011;3967;48.702;9.326;2022-10-26T16:12:50;2.83;;;1.33;;
7843;SDS011;3967;48.702;9.326;2022-10-26T16:15:18;6.40;;;1.33;;
7843;SDS011;3967;48.702;9.326;2022-10-26T16:17:47;3.43;;;1.93;;
7843;SDS011;3967;48.702;9.326;2022-10-26T16:20:21;3.83;;;1.50;;
7843;SDS011;3967;48.702;9.326;2022-10-26T16:22:50;2.30;;;1.60;;
7843;SDS011;3967;48.702;9.326;2022-10-26T16:25:19;3.73;;;1.63;;
7843;SDS011;3967;48.702;9.326;2022-10-26T16:27:50;4.57;;;1.40;;
7843;SDS011;3967;48.702;9.326;2022-10-26T16:30:18;5.63;;;1.47;;
7843;SDS011;3967;48.702;9.326;2022-10-26T16:32:46;6.93;;;1.60;;
7843;SDS011;3967;48.702;9.326;2022-10-26T16:35:13;4.50;;;1.90;;
7843;SDS011;3967;48.702;9.326;2022-10-26T16:37:40;3.07;;;2.20;;
7843;SDS011;3967;48.702;9.326;2022-10-26T16:40:07;7.27;;;3.47;;
7843;SDS011;3967;48.702;9.326;2022-10-26T16:42:34;3.97;;;2.40;;
7843;SDS011;3967;48.702;9.326;2022-10-26T16:45:01;4.77;;;2.57;;
7843;SDS011;3967;48.702;9.326;2022-10-26T16:47:31;7.83;;;2.93;;
7843;SDS011;3967;48.702;9.326;2022-10-26T16:50:01;7.20;;;2.80;;
7843;SDS011;3967;48.702;9.326;2022-10-26T16:52:28;3.80;;;2.30;;
7843;SDS011;3967;48.702;9.326;2022-10-26T16:54:55;9.83;;;2.93;;
7843;SDS011;3967;48.702;9.326;2022-10-26T16:57:22;10.57;;;2.63;;
7843;SDS011;3967;48.702;9.326;2022-10-26T16:59:49;4.67;;;2.23;;
7843;SDS011;3967;48.702;9.326;2022-10-26T17:02:16;4.57;;;2.80;;
7843;SDS011;3967;48.702;9.326;2022-10-26T17:04:43;5.90;;;2.60;;
7843;SDS011;3967;48.702;9.326;2022-10-26T17:07:09;4.77;;;2.20;;
7843;SDS011;3967;48.702;9.326;2022-10-26T17:09:36;3.77;;;2.00;;
7843;SDS011;3967;48.702;9.326;2022-10-26T17:12:03;3.23;;;2.47;;
7843;SDS011;3967;48.702;9.326;2022-10-26T17:14:30;5.63;;;1.90;;
7843;SDS011;3967;48.702;9.326;2022-10-26T17:16:57;6.37;;;2.17;;
7843;SDS011;3967;48.702;9.326;2022-10-26T17:19:24;4.73;;;1.90;;
7843;SDS011;3967;48.702;9.326;2022-10-26T17:21:51;5.33;;;1.90;;
7843;SDS011;3967;48.702;9.326;2022-10-26T17:24:17;4.57;;;1.90;;
7843;SDS011;3967;48.702;9.326;2022-10-26T17:26:44;5.07;;;1.87;;
7843;SDS011;3967;48.702;9.326;2022-10-26T17:29:11;3.87;;;1.93;;
7843;SDS011;3967;48.702;9.326;2022-10-26T17:31:39;5.20;;;2.20;;
7843;SDS011;3967;48.702;9.326;2022-10-26T17:34:05;12.73;;;2.23;;
7843;SDS011;3967;48.702;9.326;2022-10-26T17:36:32;6.50;;;2.00;;
7843;SDS011;3967;48.702;9.326;2022-10-26T17:38:59;7.30;;;2.10;;
7843;SDS011;3967;48.702;9.326;2022-10-26T17:41:26;4.73;;;2.03;;
7843;SDS011;3967;48.702;9.326;2022-10-26T17:43:54;5.80;;;2.20;;
7843;SDS011;3967;48.702;9.326;2022-10-26T17:46:22;6.37;;;2.47;;
7843;SDS011;3967;48.702;9.326;2022-10-26T17:48:54;5.97;;;2.20;;
7843;SDS011;3967;48.702;9.326;2022-10-26T17:51:22;3.60;;;2.20;;
7843;SDS011;3967;48.702;9.326;2022-10-26T17:53:50;2.30;;;1.80;;
7843;SDS011;3967;48.702;9.326;2022-10-26T17:56:19;3.97;;;2.23;;
7843;SDS011;3967;48.702;9.326;2022-10-26T17:58:54;8.13;;;3.13;;